createdAt,value
2022-10-15T00:01:23.559Z,11.17
2022-10-15T00:03:50.445Z,11.21
2022-10-15T00:06:20.769Z,11.22
2022-10-15T00:08:48.589Z,11.24
2022-10-15T00:11:26.109Z,11.21
2022-10-15T00:13:56.013Z,11.26
2022-10-15T00:16:26.380Z,11.27
2022-10-15T00:18:57.012Z,11.26
2022-10-15T00:21:23.825Z,11.28
2022-10-15T00:23:50.951Z,11.27
2022-10-15T00:26:22.398Z,11.29
2022-10-15T00:28:51.073Z,11.32
2022-10-15T00:31:21.131Z,11.31
2022-10-15T00:33:49.882Z,11.32
2022-10-15T00:36:20.929Z,11.36
2022-10-15T00:38:48.608Z,11.38
2022-10-15T00:41:31.777Z,11.41
2022-10-15T00:44:02.393Z,11.43
2022-10-15T00:46:38.473Z,11.48
2022-10-15T00:49:18.852Z,11.48
2022-10-15T00:51:50.233Z,11.48
2022-10-15T00:54:17.067Z,11.55
2022-10-15T00:56:45.875Z,11.57
2022-10-15T00:59:14.628Z,11.57
2022-10-15T01:01:42.132Z,11.61
2022-10-15T01:04:09.284Z,11.59
2022-10-15T01:06:37.124Z,11.61
2022-10-15T01:09:04.659Z,11.62
2022-10-15T01:11:47.777Z,11.62
2022-10-15T01:14:33.113Z,11.65
2022-10-15T01:17:26.546Z,11.61
2022-10-15T01:20:37.637Z,11.62
2022-10-15T01:23:54.108Z,11.61
2022-10-15T01:26:58.883Z,11.60
2022-10-15T01:30:04.046Z,11.62
2022-10-15T01:32:56.966Z,11.61
2022-10-15T01:35:55.059Z,11.61
2022-10-15T01:38:31.089Z,11.63
2022-10-15T01:41:18.944Z,11.64
2022-10-15T01:43:58.221Z,11.63
2022-10-15T01:46:35.879Z,11.67
2022-10-15T01:49:05.424Z,11.64
2022-10-15T01:51:35.482Z,11.62
2022-10-15T01:54:06.086Z,11.57
2022-10-15T01:56:36.527Z,11.62
2022-10-15T01:59:05.673Z,11.64
2022-10-15T02:01:32.578Z,11.63
2022-10-15T02:03:59.545Z,11.61
2022-10-15T02:06:34.440Z,11.60
2022-10-15T02:09:10.871Z,11.61
2022-10-15T02:12:12.770Z,11.55
2022-10-15T02:15:13.713Z,11.55
2022-10-15T02:18:06.671Z,11.54
2022-10-15T02:20:49.997Z,11.55
2022-10-15T02:23:36.709Z,11.54
2022-10-15T02:26:06.780Z,11.58
2022-10-15T02:28:37.663Z,11.56
2022-10-15T02:31:06.424Z,11.56
2022-10-15T02:33:35.617Z,11.58
2022-10-15T02:36:02.701Z,11.54
2022-10-15T02:38:31.959Z,11.57
2022-10-15T02:41:00.689Z,11.59
2022-10-15T02:43:27.474Z,11.57
2022-10-15T02:45:54.307Z,11.59
2022-10-15T02:48:21.284Z,11.54
2022-10-15T02:50:48.240Z,11.55
2022-10-15T02:53:15.032Z,11.53
2022-10-15T02:55:42.058Z,11.58
2022-10-15T02:58:08.916Z,11.55
2022-10-15T03:00:35.780Z,11.54
2022-10-15T03:03:02.947Z,11.50
2022-10-15T03:05:30.184Z,11.55
2022-10-15T03:07:59.716Z,11.50
2022-10-15T03:10:26.828Z,11.44
2022-10-15T03:12:53.639Z,11.43
2022-10-15T03:15:20.891Z,11.47
2022-10-15T03:17:47.669Z,11.42
2022-10-15T03:20:14.801Z,11.43
2022-10-15T03:22:41.566Z,11.43
2022-10-15T03:25:08.619Z,11.45
2022-10-15T03:27:35.405Z,11.40
2022-10-15T03:30:02.214Z,11.41
2022-10-15T03:32:32.024Z,11.39
2022-10-15T03:35:03.176Z,11.36
2022-10-15T03:37:29.974Z,11.32
2022-10-15T03:39:57.000Z,11.28
2022-10-15T03:42:24.282Z,11.30
2022-10-15T03:44:51.326Z,11.33
2022-10-15T03:47:18.119Z,11.28
2022-10-15T03:49:44.925Z,11.28
2022-10-15T03:52:11.830Z,11.25
2022-10-15T03:54:39.025Z,11.26
2022-10-15T03:57:05.943Z,11.24
2022-10-15T03:59:32.934Z,11.24
2022-10-15T04:01:59.820Z,11.22
2022-10-15T04:04:26.676Z,11.24
2022-10-15T04:06:53.626Z,11.25
2022-10-15T04:09:20.775Z,11.18
2022-10-15T04:11:47.567Z,11.22
2022-10-15T04:14:14.379Z,11.22
2022-10-15T04:16:41.183Z,11.20
2022-10-15T04:19:10.999Z,11.17
2022-10-15T04:21:38.176Z,11.13
2022-10-15T04:24:05.209Z,11.16
2022-10-15T04:26:32.128Z,11.10
2022-10-15T04:28:58.967Z,11.05
2022-10-15T04:31:26.104Z,11.03
2022-10-15T04:33:52.976Z,10.98
2022-10-15T04:36:19.793Z,10.91
2022-10-15T04:38:46.593Z,10.83
2022-10-15T04:41:13.638Z,10.78
2022-10-15T04:43:40.917Z,10.71
2022-10-15T04:46:09.401Z,10.65
2022-10-15T04:48:42.088Z,10.61
2022-10-15T04:51:15.107Z,10.48
2022-10-15T04:53:42.236Z,10.45
2022-10-15T04:56:15.593Z,10.42
2022-10-15T04:58:43.134Z,10.39
2022-10-15T05:01:13.572Z,10.33
2022-10-15T05:03:45.088Z,10.29
2022-10-15T05:06:20.369Z,10.25
2022-10-15T05:08:49.361Z,10.25
2022-10-15T05:11:23.463Z,10.24
2022-10-15T05:13:51.466Z,10.23
2022-10-15T05:16:21.934Z,10.18
2022-10-15T05:18:52.339Z,10.15
2022-10-15T05:21:19.968Z,10.14
2022-10-15T05:23:47.515Z,10.14
2022-10-15T05:26:17.503Z,10.07
2022-10-15T05:28:44.766Z,10.03
2022-10-15T05:31:19.210Z,10.03
2022-10-15T05:33:47.979Z,10.03
2022-10-15T05:36:30.601Z,9.99
2022-10-15T05:39:04.133Z,9.94
2022-10-15T05:41:31.236Z,9.89
2022-10-15T05:43:59.585Z,9.87
2022-10-15T05:46:26.715Z,9.82
2022-10-15T05:48:56.737Z,9.78
2022-10-15T05:51:26.243Z,9.78
2022-10-15T05:53:57.676Z,9.72
2022-10-15T05:56:25.586Z,9.70
2022-10-15T05:58:52.579Z,9.69
2022-10-15T06:01:20.334Z,9.66
2022-10-15T06:03:47.507Z,9.64
2022-10-15T06:06:26.487Z,9.62
2022-10-15T06:08:55.355Z,9.61
2022-10-15T06:11:22.698Z,9.62
2022-10-15T06:13:49.504Z,9.65
2022-10-15T06:16:21.133Z,9.68
2022-10-15T06:18:52.905Z,9.73
2022-10-15T06:21:19.951Z,9.77
2022-10-15T06:23:46.876Z,9.82
2022-10-15T06:26:13.687Z,9.84
2022-10-15T06:28:40.593Z,9.92
2022-10-15T06:31:08.230Z,9.95
2022-10-15T06:33:36.277Z,10.00
2022-10-15T06:36:14.132Z,10.03
2022-10-15T06:38:44.308Z,10.06
2022-10-15T06:41:11.812Z,10.09
2022-10-15T06:43:38.718Z,10.13
2022-10-15T06:46:06.756Z,10.17
2022-10-15T06:48:34.562Z,10.22
2022-10-15T06:51:02.979Z,10.23
2022-10-15T06:53:30.805Z,10.24
2022-10-15T06:56:03.005Z,10.27
2022-10-15T06:58:30.246Z,10.30
2022-10-15T07:01:02.103Z,10.32
2022-10-15T07:03:29.647Z,10.35
2022-10-15T07:05:56.751Z,10.44
2022-10-15T07:08:25.755Z,10.51
2022-10-15T07:10:52.547Z,10.54
2022-10-15T07:13:19.374Z,10.60
2022-10-15T07:15:47.377Z,10.65
2022-10-15T07:18:14.232Z,10.70
2022-10-15T07:20:41.508Z,10.74
2022-10-15T07:23:08.303Z,10.78
2022-10-15T07:25:35.141Z,10.80
2022-10-15T07:28:01.935Z,10.84
2022-10-15T07:30:28.936Z,10.83
2022-10-15T07:32:57.801Z,10.86
2022-10-15T07:35:26.191Z,10.93
2022-10-15T07:37:53.353Z,10.93
2022-10-15T07:40:20.641Z,10.93
2022-10-15T07:42:58.319Z,10.93
2022-10-15T07:45:26.620Z,10.98
2022-10-15T07:47:54.550Z,10.93
2022-10-15T07:50:21.657Z,10.98
2022-10-15T07:52:48.606Z,10.97
2022-10-15T07:55:15.490Z,10.99
2022-10-15T07:57:42.265Z,10.97
2022-10-15T08:00:10.121Z,10.93
2022-10-15T08:02:36.892Z,10.87
2022-10-15T08:05:04.254Z,10.88
2022-10-15T08:07:31.108Z,10.89
2022-10-15T08:09:57.967Z,10.87
2022-10-15T08:12:25.368Z,10.93
2022-10-15T08:14:52.423Z,11.03
2022-10-15T08:17:19.242Z,11.19
2022-10-15T08:19:46.023Z,11.35
2022-10-15T08:22:13.018Z,11.51
2022-10-15T08:24:42.971Z,11.64
2022-10-15T08:27:09.845Z,11.76
2022-10-15T08:29:36.624Z,11.84
2022-10-15T08:32:03.616Z,11.94
2022-10-15T08:34:30.389Z,11.93
2022-10-15T08:36:57.554Z,11.88
2022-10-15T08:39:24.420Z,11.83
2022-10-15T08:42:12.383Z,11.78
2022-10-15T08:44:47.779Z,11.81
2022-10-15T08:47:31.595Z,11.75
2022-10-15T08:51:01.749Z,11.80
2022-10-15T08:53:29.928Z,11.80
2022-10-15T08:56:04.409Z,11.82
2022-10-15T08:58:59.115Z,11.82
2022-10-15T09:01:43.431Z,11.65
2022-10-15T09:04:28.441Z,11.77
2022-10-15T09:07:15.090Z,11.75
2022-10-15T09:10:39.507Z,11.77
2022-10-15T09:13:33.730Z,11.75
2022-10-15T09:16:14.540Z,11.71
2022-10-15T09:18:48.347Z,11.76
2022-10-15T09:21:16.194Z,11.74
2022-10-15T09:23:44.460Z,11.75
2022-10-15T09:26:23.121Z,11.75
2022-10-15T09:29:14.609Z,11.78
2022-10-15T09:31:51.914Z,11.74
2022-10-15T09:34:29.981Z,11.80
2022-10-15T09:37:12.241Z,11.75
2022-10-15T09:40:00.405Z,11.82
2022-10-15T09:42:30.809Z,11.82
2022-10-15T09:45:07.440Z,11.81
2022-10-15T09:47:36.693Z,11.83
2022-10-15T09:50:08.256Z,11.84
2022-10-15T09:52:47.262Z,11.82
2022-10-15T09:55:57.473Z,11.85
2022-10-15T09:58:37.766Z,11.84
2022-10-15T10:01:08.173Z,11.83
2022-10-15T10:03:37.183Z,11.84
2022-10-15T10:06:12.536Z,11.82
2022-10-15T10:08:53.942Z,11.81
2022-10-15T10:11:22.889Z,11.80
2022-10-15T10:13:49.600Z,11.83
2022-10-15T10:16:19.764Z,11.82
2022-10-15T10:19:20.363Z,11.83
2022-10-15T10:21:47.164Z,11.83
2022-10-15T10:24:31.955Z,11.83
2022-10-15T10:26:59.842Z,11.85
2022-10-15T10:29:34.110Z,11.86
2022-10-15T10:32:12.642Z,11.87
2022-10-15T10:34:42.649Z,11.89
2022-10-15T10:37:11.708Z,11.97
2022-10-15T10:39:38.797Z,12.01
2022-10-15T10:42:11.787Z,12.04
2022-10-15T10:44:42.169Z,12.13
2022-10-15T10:47:16.787Z,12.18
2022-10-15T10:49:51.245Z,12.24
2022-10-15T10:52:33.216Z,12.27
2022-10-15T10:55:18.178Z,12.32
2022-10-15T10:58:02.734Z,12.42
2022-10-15T11:00:43.377Z,12.47
2022-10-15T11:03:36.413Z,12.52
2022-10-15T11:06:12.391Z,12.56
2022-10-15T11:08:58.450Z,12.59
2022-10-15T11:11:57.113Z,12.76
2022-10-15T11:14:30.325Z,12.92
2022-10-15T11:17:23.919Z,12.98
2022-10-15T11:20:42.264Z,13.14
2022-10-15T11:23:03.155Z,13.23
2022-10-15T11:26:17.380Z,13.35
2022-10-15T11:29:19.349Z,13.44
2022-10-15T11:32:15.355Z,13.50
2022-10-15T11:35:34.568Z,13.53
2022-10-15T11:38:34.106Z,13.56
2022-10-15T11:41:43.740Z,13.61
2022-10-15T11:45:12.161Z,13.74
2022-10-15T11:48:05.109Z,13.86
2022-10-15T11:50:59.150Z,13.88
2022-10-15T11:54:00.195Z,13.93
2022-10-15T11:56:35.022Z,13.97
2022-10-15T11:59:49.176Z,13.88
2022-10-15T12:02:24.055Z,13.90
2022-10-15T12:04:56.284Z,13.84
2022-10-15T12:07:42.353Z,13.78
2022-10-15T12:10:12.072Z,13.76
2022-10-15T12:12:59.367Z,13.77
2022-10-15T12:15:45.481Z,13.75
2022-10-15T12:18:28.392Z,13.74
2022-10-15T12:20:55.943Z,13.75
2022-10-15T12:23:42.405Z,13.74
2022-10-15T12:26:24.654Z,13.76
2022-10-15T12:28:56.559Z,13.76
2022-10-15T12:31:25.723Z,13.63
2022-10-15T12:33:55.433Z,13.58
2022-10-15T12:36:30.519Z,13.51
2022-10-15T12:39:27.760Z,13.36
2022-10-15T12:42:23.344Z,13.39
2022-10-15T12:44:51.172Z,13.36
2022-10-15T12:47:56.250Z,13.48
2022-10-15T12:50:31.243Z,13.62
2022-10-15T12:52:59.820Z,13.73
2022-10-15T12:55:38.998Z,13.79
2022-10-15T12:58:31.736Z,13.89
2022-10-15T13:00:58.703Z,13.92
2022-10-15T13:03:36.112Z,13.91
2022-10-15T13:06:21.273Z,14.00
2022-10-15T13:08:53.598Z,14.07
2022-10-15T13:11:32.409Z,14.07
2022-10-15T13:14:40.163Z,14.13
2022-10-15T13:17:16.794Z,14.14
2022-10-15T13:19:56.563Z,14.21
2022-10-15T13:22:29.757Z,14.19
2022-10-15T13:24:57.636Z,14.23
2022-10-15T13:27:27.262Z,14.26
2022-10-15T13:30:07.626Z,14.21
2022-10-15T13:32:40.872Z,14.21
2022-10-15T13:35:17.712Z,14.18
2022-10-15T13:37:47.013Z,14.19
2022-10-15T13:40:32.906Z,14.18
2022-10-15T13:43:14.018Z,14.24
2022-10-15T13:45:47.984Z,14.21
2022-10-15T13:48:23.128Z,14.22
2022-10-15T13:51:04.426Z,14.25
2022-10-15T13:53:35.475Z,14.37
2022-10-15T13:56:25.015Z,14.46
2022-10-15T13:58:53.364Z,14.45
2022-10-15T14:01:25.529Z,14.45
2022-10-15T14:03:58.612Z,14.38
2022-10-15T14:06:38.255Z,14.36
2022-10-15T14:09:40.399Z,14.35
2022-10-15T14:12:08.647Z,14.38
2022-10-15T14:14:37.834Z,14.35
2022-10-15T14:17:21.027Z,14.32
2022-10-15T14:22:51.686Z,14.52
2022-10-15T14:25:25.061Z,14.55
2022-10-15T14:27:52.566Z,14.60
2022-10-15T14:30:32.150Z,14.60
2022-10-15T14:32:59.394Z,14.56
2022-10-15T14:35:36.307Z,14.48
2022-10-15T14:38:17.069Z,14.36
2022-10-15T14:41:26.126Z,14.29
2022-10-15T14:44:18.197Z,14.22
2022-10-15T14:46:52.922Z,14.21
2022-10-15T14:49:29.264Z,14.14
2022-10-15T14:52:00.945Z,14.10
2022-10-15T14:54:35.670Z,14.03
2022-10-15T14:57:02.971Z,13.95
2022-10-15T14:59:36.070Z,13.88
2022-10-15T15:02:04.749Z,13.88
2022-10-15T15:04:44.917Z,13.84
2022-10-15T15:07:21.490Z,13.73
2022-10-15T15:09:52.390Z,13.75
2022-10-15T15:12:27.093Z,13.71
2022-10-15T15:14:54.976Z,13.61
2022-10-15T15:17:28.027Z,13.60
2022-10-15T15:19:57.539Z,13.54
2022-10-15T15:22:34.197Z,13.46
2022-10-15T15:25:06.653Z,13.45
2022-10-15T15:27:37.382Z,13.43
2022-10-15T15:30:08.703Z,13.47
2022-10-15T15:32:35.690Z,13.48
2022-10-15T15:35:02.497Z,13.50
2022-10-15T15:37:30.320Z,13.47
2022-10-15T15:39:57.100Z,13.56
2022-10-15T15:42:26.246Z,13.56
2022-10-15T15:44:53.304Z,13.61
2022-10-15T15:47:20.128Z,13.60
2022-10-15T15:49:47.293Z,13.59
2022-10-15T15:52:14.530Z,13.58
2022-10-15T15:54:41.730Z,13.57
2022-10-15T15:57:08.569Z,13.59
2022-10-15T15:59:35.537Z,13.62
2022-10-15T16:02:02.455Z,13.69
2022-10-15T16:04:29.370Z,13.72
2022-10-15T16:06:56.184Z,13.76
2022-10-15T16:09:23.726Z,13.70
2022-10-15T16:11:51.228Z,13.65
2022-10-15T16:14:18.179Z,13.58
2022-10-15T16:16:45.026Z,13.45
2022-10-15T16:19:12.080Z,13.28
2022-10-15T16:21:38.857Z,13.15
2022-10-15T16:24:06.113Z,13.05
2022-10-15T16:26:33.228Z,12.98
2022-10-15T16:29:00.214Z,12.92
2022-10-15T16:31:33.404Z,12.89
2022-10-15T16:34:00.281Z,12.90
2022-10-15T16:36:27.118Z,12.89
2022-10-15T16:38:54.269Z,12.84
2022-10-15T16:41:21.088Z,12.73
2022-10-15T16:43:48.971Z,12.74
2022-10-15T16:46:18.644Z,12.66
2022-10-15T16:48:46.029Z,12.60
2022-10-15T16:51:16.318Z,12.43
2022-10-15T16:53:45.704Z,12.45
2022-10-15T16:56:25.246Z,12.37
2022-10-15T16:58:52.837Z,12.33
2022-10-15T17:01:24.186Z,12.24
2022-10-15T17:03:51.512Z,12.22
2022-10-15T17:06:23.710Z,12.15
2022-10-15T17:08:55.219Z,12.16
2022-10-15T17:11:29.820Z,12.12
2022-10-15T17:14:00.604Z,12.05
2022-10-15T17:16:34.841Z,12.06
2022-10-15T17:19:02.765Z,11.97
2022-10-15T17:21:31.186Z,12.01
2022-10-15T17:24:02.628Z,12.01
2022-10-15T17:26:36.288Z,11.99
2022-10-15T17:29:05.277Z,11.99
2022-10-15T17:31:33.032Z,12.00
2022-10-15T17:34:05.608Z,11.96
2022-10-15T17:36:42.616Z,11.95
2022-10-15T17:39:11.006Z,11.98
2022-10-15T17:41:37.865Z,11.95
2022-10-15T17:44:04.851Z,11.95
2022-10-15T17:46:31.908Z,11.93
2022-10-15T17:48:59.852Z,11.90
2022-10-15T17:51:30.712Z,11.80
2022-10-15T17:53:59.567Z,11.79
2022-10-15T17:56:32.973Z,11.70
2022-10-15T17:59:01.822Z,11.67
2022-10-15T18:01:56.190Z,11.67
2022-10-15T18:04:19.491Z,11.63
2022-10-15T18:06:46.460Z,11.60
2022-10-15T18:09:13.431Z,11.57
2022-10-15T18:11:40.710Z,11.50
2022-10-15T18:14:07.608Z,11.50
2022-10-15T18:16:34.749Z,11.47
2022-10-15T18:19:01.539Z,11.47
2022-10-15T18:21:28.773Z,11.48
2022-10-15T18:23:56.924Z,11.48
2022-10-15T18:26:24.307Z,11.53
2022-10-15T18:28:53.899Z,11.55
2022-10-15T18:31:22.238Z,11.60
2022-10-15T18:33:52.559Z,11.61
2022-10-15T18:36:26.533Z,11.61
2022-10-15T18:38:55.103Z,11.62
2022-10-15T18:41:28.703Z,11.62
2022-10-15T18:44:01.254Z,11.58
2022-10-15T18:46:29.748Z,11.56
2022-10-15T18:48:57.299Z,11.56
2022-10-15T18:51:27.410Z,11.58
2022-10-15T18:53:54.928Z,11.55
2022-10-15T18:56:22.737Z,11.46
2022-10-15T18:58:50.240Z,11.44
2022-10-15T19:01:29.183Z,11.38
2022-10-15T19:03:58.932Z,11.27
2022-10-15T19:06:34.445Z,11.26
2022-10-15T19:09:04.562Z,11.21
2022-10-15T19:11:32.651Z,11.18
2022-10-15T19:14:01.320Z,11.18
2022-10-15T19:16:28.783Z,11.15
2022-10-15T19:18:55.759Z,11.16
2022-10-15T19:21:22.801Z,11.15
2022-10-15T19:23:49.985Z,11.14
2022-10-15T19:26:17.517Z,11.11
2022-10-15T19:28:45.014Z,11.10
2022-10-15T19:31:22.984Z,11.08
2022-10-15T19:33:50.098Z,11.07
2022-10-15T19:36:29.602Z,11.12
2022-10-15T19:38:56.801Z,11.13
2022-10-15T19:41:23.737Z,11.17
2022-10-15T19:43:50.569Z,11.15
2022-10-15T19:46:17.411Z,11.16
2022-10-15T19:48:44.656Z,11.12
2022-10-15T19:51:11.553Z,11.09
2022-10-15T19:53:38.930Z,11.11
2022-10-15T19:56:10.053Z,11.07
2022-10-15T19:58:37.074Z,10.98
2022-10-15T20:01:03.978Z,10.97
2022-10-15T20:03:30.899Z,10.93
2022-10-15T20:05:58.320Z,10.86
2022-10-15T20:08:26.177Z,10.78
2022-10-15T20:10:53.803Z,10.67
2022-10-15T20:13:22.768Z,10.60
2022-10-15T20:15:54.076Z,10.53
2022-10-15T20:18:22.443Z,10.49
2022-10-15T20:20:49.743Z,10.45
2022-10-15T20:23:17.809Z,10.41
2022-10-15T20:25:45.760Z,10.34
2022-10-15T20:28:14.773Z,10.27
2022-10-15T20:30:42.329Z,10.21
2022-10-15T20:33:09.674Z,10.19
2022-10-15T20:35:38.618Z,10.10
2022-10-15T20:38:07.000Z,10.09
2022-10-15T20:40:35.170Z,10.02
2022-10-15T20:43:02.041Z,9.97
2022-10-15T20:45:36.745Z,9.99
2022-10-15T20:48:03.922Z,9.95
2022-10-15T20:50:34.804Z,9.99
2022-10-15T20:53:02.518Z,9.98
2022-10-15T20:55:29.400Z,10.06
2022-10-15T20:57:56.249Z,10.06
2022-10-15T21:00:23.544Z,10.10
2022-10-15T21:02:50.322Z,10.17
2022-10-15T21:05:17.366Z,10.18
2022-10-15T21:07:44.405Z,10.12
2022-10-15T21:10:11.292Z,10.14
2022-10-15T21:12:38.955Z,10.17
2022-10-15T21:15:06.753Z,10.15
2022-10-15T21:17:33.617Z,10.12
2022-10-15T21:20:00.698Z,10.13
2022-10-15T21:22:27.598Z,10.13
2022-10-15T21:24:54.397Z,10.13
2022-10-15T21:27:21.197Z,10.11
2022-10-15T21:29:49.601Z,10.16
2022-10-15T21:32:16.753Z,10.13
2022-10-15T21:34:43.704Z,10.09
2022-10-15T21:37:11.400Z,10.10
2022-10-15T21:39:38.310Z,10.05
2022-10-15T21:42:05.143Z,10.08
2022-10-15T21:44:31.956Z,10.05
2022-10-15T21:46:58.765Z,10.08
2022-10-15T21:49:25.582Z,10.11
2022-10-15T21:51:52.756Z,10.15
2022-10-15T21:56:46.340Z,10.12
2022-10-15T21:59:13.188Z,10.16
2022-10-15T22:01:42.060Z,10.17
2022-10-15T22:04:11.280Z,10.13
2022-10-15T22:06:40.388Z,10.10
2022-10-15T22:09:08.871Z,10.05
2022-10-15T22:11:39.665Z,10.00
2022-10-15T22:14:11.658Z,9.92
2022-10-15T22:16:40.135Z,9.85
2022-10-15T22:19:09.815Z,9.77
2022-10-15T22:21:38.739Z,9.73
2022-10-15T22:24:13.839Z,9.65
2022-10-15T22:26:43.664Z,9.65
2022-10-15T22:29:30.634Z,9.66
2022-10-15T22:32:01.347Z,9.62
2022-10-15T22:34:28.135Z,9.57
2022-10-15T22:36:54.927Z,9.55
2022-10-15T22:39:22.163Z,9.51
2022-10-15T22:41:49.366Z,9.49
2022-10-15T22:44:19.787Z,9.48
2022-10-15T22:46:49.453Z,9.46
2022-10-15T22:49:19.917Z,9.36
2022-10-15T22:51:48.166Z,9.35
2022-10-15T22:54:17.771Z,9.33
2022-10-15T22:56:46.357Z,9.33
2022-10-15T22:59:13.497Z,9.31
2022-10-15T23:01:40.779Z,9.27
2022-10-15T23:04:08.690Z,9.26
2022-10-15T23:06:37.888Z,9.26
2022-10-15T23:09:06.728Z,9.24
2022-10-15T23:11:40.377Z,9.26
2022-10-15T23:14:12.795Z,9.23
2022-10-15T23:16:43.834Z,9.20
2022-10-15T23:19:20.202Z,9.22
2022-10-15T23:21:48.164Z,9.23
2022-10-15T23:24:16.934Z,9.22
2022-10-15T23:26:44.418Z,9.22
2022-10-15T23:29:20.267Z,9.23
2022-10-15T23:31:48.215Z,9.22
2022-10-15T23:34:21.808Z,9.19
2022-10-15T23:36:49.294Z,9.16
2022-10-15T23:39:20.153Z,9.17
2022-10-15T23:41:47.868Z,9.12
2022-10-15T23:44:14.755Z,9.16
2022-10-15T23:46:41.932Z,9.16
2022-10-15T23:49:09.325Z,9.16
2022-10-15T23:51:36.565Z,9.14
2022-10-15T23:54:12.234Z,9.12
2022-10-15T23:56:39.096Z,9.12
2022-10-15T23:59:06.034Z,9.12
